sensor_id;sensor_type;location;lat;lon;timestamp;temperature;humidity
78490;DHT22;67776;52.012;4.736;2023-11-21T00:02:15;6.05;99.99
78490;DHT22;67776;52.012;4.736;2023-11-21T00:04:40;6.07;99.99
78490;DHT22;67776;52.012;4.736;2023-11-21T00:07:05;6.08;99.99
78490;DHT22;67776;52.012;4.736;2023-11-21T00:09:31;6.09;99.99
78490;DHT22;67776;52.012;4.736;2023-11-21T00:11:57;6.14;99.99
78490;DHT22;67776;52.012;4.736;2023-11-21T00:14:22;6.15;99.99
78490;DHT22;67776;52.012;4.736;2023-11-21T00:16:48;6.18;99.99
78490;DHT22;67776;52.012;4.736;2023-11-21T00:19:13;6.22;99.99
78490;DHT22;67776;52.012;4.736;2023-11-21T00:21:39;6.24;99.99
78490;DHT22;67776;52.012;4.736;2023-11-21T00:24:04;6.24;99.99
78490;DHT22;67776;52.012;4.736;2023-11-21T00:26:30;6.30;99.99
78490;DHT22;67776;52.012;4.736;2023-11-21T00:29:01;6.42;99.99
78490;DHT22;67776;52.012;4.736;2023-11-21T00:31:27;6.47;99.99
78490;DHT22;67776;52.012;4.736;2023-11-21T00:33:52;6.56;99.99
78490;DHT22;67776;52.012;4.736;2023-11-21T00:36:19;6.60;99.99
78490;DHT22;67776;52.012;4.736;2023-11-21T00:38:44;6.70;99.99
78490;DHT22;67776;52.012;4.736;2023-11-21T00:41:09;6.72;99.99
78490;DHT22;67776;52.012;4.736;2023-11-21T00:43:35;6.81;99.99
78490;DHT22;67776;52.012;4.736;2023-11-21T00:46:04;6.90;99.99
78490;DHT22;67776;52.012;4.736;2023-11-21T00:48:29;6.98;99.99
78490;DHT22;67776;52.012;4.736;2023-11-21T00:50:54;7.04;99.99
78490;DHT22;67776;52.012;4.736;2023-11-21T00:53:21;7.09;99.99
78490;DHT22;67776;52.012;4.736;2023-11-21T00:55:47;7.14;99.99
78490;DHT22;67776;52.012;4.736;2023-11-21T00:58:12;7.16;99.99
78490;DHT22;67776;52.012;4.736;2023-11-21T01:00:38;7.19;99.99
78490;DHT22;67776;52.012;4.736;2023-11-21T01:03:04;7.19;99.99
78490;DHT22;67776;52.012;4.736;2023-11-21T01:05:30;7.20;99.99
78490;DHT22;67776;52.012;4.736;2023-11-21T01:07:55;7.23;99.99
78490;DHT22;67776;52.012;4.736;2023-11-21T01:10:20;7.26;99.99
78490;DHT22;67776;52.012;4.736;2023-11-21T01:12:46;7.26;99.99
78490;DHT22;67776;52.012;4.736;2023-11-21T01:15:11;7.30;99.99
78490;DHT22;67776;52.012;4.736;2023-11-21T01:17:40;7.28;99.99
78490;DHT22;67776;52.012;4.736;2023-11-21T01:20:06;7.32;99.99
78490;DHT22;67776;52.012;4.736;2023-11-21T01:22:38;7.33;99.99
78490;DHT22;67776;52.012;4.736;2023-11-21T01:25:04;7.39;99.99
78490;DHT22;67776;52.012;4.736;2023-11-21T01:27:35;7.40;99.99
78490;DHT22;67776;52.012;4.736;2023-11-21T01:30:02;7.43;99.99
78490;DHT22;67776;52.012;4.736;2023-11-21T01:32:27;7.50;99.99
78490;DHT22;67776;52.012;4.736;2023-11-21T01:34:53;7.46;99.99
78490;DHT22;67776;52.012;4.736;2023-11-21T01:37:19;7.52;99.99
78490;DHT22;67776;52.012;4.736;2023-11-21T01:39:44;7.53;99.99
78490;DHT22;67776;52.012;4.736;2023-11-21T01:42:10;7.55;99.99
78490;DHT22;67776;52.012;4.736;2023-11-21T01:44:36;7.56;99.99
78490;DHT22;67776;52.012;4.736;2023-11-21T01:47:01;7.55;99.99
78490;DHT22;67776;52.012;4.736;2023-11-21T01:49:31;7.57;99.99
78490;DHT22;67776;52.012;4.736;2023-11-21T01:51:57;7.56;99.99
78490;DHT22;67776;52.012;4.736;2023-11-21T01:54:22;7.57;99.99
78490;DHT22;67776;52.012;4.736;2023-11-21T01:56:48;7.57;99.99
78490;DHT22;67776;52.012;4.736;2023-11-21T01:59:20;7.57;99.99
78490;DHT22;67776;52.012;4.736;2023-11-21T02:01:49;7.59;99.99
78490;DHT22;67776;52.012;4.736;2023-11-21T02:04:15;7.62;99.99
78490;DHT22;67776;52.012;4.736;2023-11-21T02:06:41;7.63;99.99
78490;DHT22;67776;52.012;4.736;2023-11-21T02:09:06;7.67;99.99
78490;DHT22;67776;52.012;4.736;2023-11-21T02:11:31;7.69;99.99
78490;DHT22;67776;52.012;4.736;2023-11-21T02:14:00;7.70;99.99
78490;DHT22;67776;52.012;4.736;2023-11-21T02:16:26;7.71;99.99
78490;DHT22;67776;52.012;4.736;2023-11-21T02:18:52;7.71;99.99
78490;DHT22;67776;52.012;4.736;2023-11-21T02:21:18;7.74;99.99
78490;DHT22;67776;52.012;4.736;2023-11-21T02:23:44;7.77;99.99
78490;DHT22;67776;52.012;4.736;2023-11-21T02:26:12;7.81;99.99
78490;DHT22;67776;52.012;4.736;2023-11-21T02:28:37;7.84;99.99
78490;DHT22;67776;52.012;4.736;2023-11-21T02:31:04;7.85;99.99
78490;DHT22;67776;52.012;4.736;2023-11-21T02:33:30;7.90;99.99
78490;DHT22;67776;52.012;4.736;2023-11-21T02:35:58;7.94;99.99
78490;DHT22;67776;52.012;4.736;2023-11-21T02:38:24;7.98;99.99
78490;DHT22;67776;52.012;4.736;2023-11-21T02:40:50;7.97;99.99
78490;DHT22;67776;52.012;4.736;2023-11-21T02:43:15;7.98;99.99
78490;DHT22;67776;52.012;4.736;2023-11-21T02:45:40;7.99;99.99
78490;DHT22;67776;52.012;4.736;2023-11-21T02:48:07;8.02;99.99
78490;DHT22;67776;52.012;4.736;2023-11-21T02:50:32;8.04;99.99
78490;DHT22;67776;52.012;4.736;2023-11-21T02:52:57;8.05;99.99
78490;DHT22;67776;52.012;4.736;2023-11-21T02:55:25;8.05;99.99
78490;DHT22;67776;52.012;4.736;2023-11-21T02:57:51;8.09;99.99
78490;DHT22;67776;52.012;4.736;2023-11-21T03:00:16;8.09;99.99
78490;DHT22;67776;52.012;4.736;2023-11-21T03:02:43;8.11;99.99
78490;DHT22;67776;52.012;4.736;2023-11-21T03:05:09;8.15;99.99
78490;DHT22;67776;52.012;4.736;2023-11-21T03:07:36;8.15;99.99
78490;DHT22;67776;52.012;4.736;2023-11-21T03:10:02;8.15;99.99
78490;DHT22;67776;52.012;4.736;2023-11-21T03:12:29;8.18;99.99
78490;DHT22;67776;52.012;4.736;2023-11-21T03:14:54;8.19;99.99
78490;DHT22;67776;52.012;4.736;2023-11-21T03:17:20;8.24;99.99
78490;DHT22;67776;52.012;4.736;2023-11-21T03:19:45;8.24;99.99
78490;DHT22;67776;52.012;4.736;2023-11-21T03:22:11;8.22;99.99
78490;DHT22;67776;52.012;4.736;2023-11-21T03:24:37;8.32;99.99
78490;DHT22;67776;52.012;4.736;2023-11-21T03:27:03;8.30;99.99
78490;DHT22;67776;52.012;4.736;2023-11-21T03:29:29;8.25;99.99
78490;DHT22;67776;52.012;4.736;2023-11-21T03:31:54;8.25;99.99
78490;DHT22;67776;52.012;4.736;2023-11-21T03:34:24;8.30;99.99
78490;DHT22;67776;52.012;4.736;2023-11-21T03:36:50;8.39;99.99
78490;DHT22;67776;52.012;4.736;2023-11-21T03:39:15;8.35;99.99
78490;DHT22;67776;52.012;4.736;2023-11-21T03:41:41;8.35;99.99
78490;DHT22;67776;52.012;4.736;2023-11-21T03:44:06;8.35;99.99
78490;DHT22;67776;52.012;4.736;2023-11-21T03:46:31;8.35;99.99
78490;DHT22;67776;52.012;4.736;2023-11-21T03:48:56;8.32;99.99
78490;DHT22;67776;52.012;4.736;2023-11-21T03:51:22;8.33;99.99
78490;DHT22;67776;52.012;4.736;2023-11-21T03:53:47;8.35;99.99
78490;DHT22;67776;52.012;4.736;2023-11-21T03:56:13;8.33;99.99
78490;DHT22;67776;52.012;4.736;2023-11-21T03:58:39;8.35;99.99
78490;DHT22;67776;52.012;4.736;2023-11-21T04:01:04;8.35;99.99
78490;DHT22;67776;52.012;4.736;2023-11-21T04:03:29;8.38;99.99
78490;DHT22;67776;52.012;4.736;2023-11-21T04:05:55;8.38;99.99
78490;DHT22;67776;52.012;4.736;2023-11-21T04:08:20;8.42;99.99
78490;DHT22;67776;52.012;4.736;2023-11-21T04:10:45;8.42;99.99
78490;DHT22;67776;52.012;4.736;2023-11-21T04:13:11;8.40;99.99
78490;DHT22;67776;52.012;4.736;2023-11-21T04:15:36;8.43;99.99
78490;DHT22;67776;52.012;4.736;2023-11-21T04:18:01;8.42;99.99
78490;DHT22;67776;52.012;4.736;2023-11-21T04:20:27;8.39;99.99
78490;DHT22;67776;52.012;4.736;2023-11-21T04:22:52;8.42;99.99
78490;DHT22;67776;52.012;4.736;2023-11-21T04:25:17;8.40;99.99
78490;DHT22;67776;52.012;4.736;2023-11-21T04:27:44;8.50;99.99
78490;DHT22;67776;52.012;4.736;2023-11-21T04:30:10;8.63;99.99
78490;DHT22;67776;52.012;4.736;2023-11-21T04:32:36;8.60;99.99
78490;DHT22;67776;52.012;4.736;2023-11-21T04:35:02;8.59;99.99
78490;DHT22;67776;52.012;4.736;2023-11-21T04:37:29;8.57;99.99
78490;DHT22;67776;52.012;4.736;2023-11-21T04:39:54;8.54;99.99
78490;DHT22;67776;52.012;4.736;2023-11-21T04:42:19;8.53;99.99
78490;DHT22;67776;52.012;4.736;2023-11-21T04:44:45;8.54;99.99
78490;DHT22;67776;52.012;4.736;2023-11-21T04:47:10;8.57;99.99
78490;DHT22;67776;52.012;4.736;2023-11-21T04:49:35;8.59;99.99
78490;DHT22;67776;52.012;4.736;2023-11-21T04:52:01;8.61;99.99
78490;DHT22;67776;52.012;4.736;2023-11-21T04:54:26;8.61;99.99
78490;DHT22;67776;52.012;4.736;2023-11-21T04:56:52;8.63;99.99
78490;DHT22;67776;52.012;4.736;2023-11-21T04:59:17;8.70;99.99
78490;DHT22;67776;52.012;4.736;2023-11-21T05:01:42;8.71;99.99
78490;DHT22;67776;52.012;4.736;2023-11-21T05:04:08;8.77;99.99
78490;DHT22;67776;52.012;4.736;2023-11-21T05:06:34;8.80;99.99
78490;DHT22;67776;52.012;4.736;2023-11-21T05:08:59;8.78;99.99
78490;DHT22;67776;52.012;4.736;2023-11-21T05:11:28;8.76;99.99
78490;DHT22;67776;52.012;4.736;2023-11-21T05:13:54;8.78;99.99
78490;DHT22;67776;52.012;4.736;2023-11-21T05:16:21;8.81;99.99
78490;DHT22;67776;52.012;4.736;2023-11-21T05:18:47;8.87;99.99
78490;DHT22;67776;52.012;4.736;2023-11-21T05:21:12;8.87;99.99
78490;DHT22;67776;52.012;4.736;2023-11-21T05:23:38;8.85;99.99
78490;DHT22;67776;52.012;4.736;2023-11-21T05:26:03;8.84;99.99
78490;DHT22;67776;52.012;4.736;2023-11-21T05:28:28;8.87;99.99
78490;DHT22;67776;52.012;4.736;2023-11-21T05:30:54;8.88;99.99
78490;DHT22;67776;52.012;4.736;2023-11-21T05:33:20;8.89;99.99
78490;DHT22;67776;52.012;4.736;2023-11-21T05:35:45;8.88;99.99
78490;DHT22;67776;52.012;4.736;2023-11-21T05:38:10;8.85;99.99
78490;DHT22;67776;52.012;4.736;2023-11-21T05:40:36;8.88;99.99
78490;DHT22;67776;52.012;4.736;2023-11-21T05:43:02;8.98;99.99
78490;DHT22;67776;52.012;4.736;2023-11-21T05:45:27;8.97;99.99
78490;DHT22;67776;52.012;4.736;2023-11-21T05:47:54;8.92;99.99
78490;DHT22;67776;52.012;4.736;2023-11-21T05:50:19;8.92;99.99
78490;DHT22;67776;52.012;4.736;2023-11-21T05:52:46;8.85;99.99
78490;DHT22;67776;52.012;4.736;2023-11-21T05:55:11;8.81;99.99
78490;DHT22;67776;52.012;4.736;2023-11-21T05:57:38;8.76;99.99
78490;DHT22;67776;52.012;4.736;2023-11-21T06:00:04;8.73;99.99
78490;DHT22;67776;52.012;4.736;2023-11-21T06:02:40;8.74;99.99
78490;DHT22;67776;52.012;4.736;2023-11-21T06:05:07;8.76;99.99
78490;DHT22;67776;52.012;4.736;2023-11-21T06:07:33;8.77;99.99
78490;DHT22;67776;52.012;4.736;2023-11-21T06:09:58;8.84;99.99
78490;DHT22;67776;52.012;4.736;2023-11-21T06:12:24;8.88;99.99
78490;DHT22;67776;52.012;4.736;2023-11-21T06:14:50;8.94;99.99
78490;DHT22;67776;52.012;4.736;2023-11-21T06:17:16;9.01;99.99
78490;DHT22;67776;52.012;4.736;2023-11-21T06:19:41;9.02;99.99
78490;DHT22;67776;52.012;4.736;2023-11-21T06:22:07;9.04;99.99
78490;DHT22;67776;52.012;4.736;2023-11-21T06:24:33;9.04;99.99
78490;DHT22;67776;52.012;4.736;2023-11-21T06:26:58;9.02;99.99
78490;DHT22;67776;52.012;4.736;2023-11-21T06:29:23;9.02;99.99
78490;DHT22;67776;52.012;4.736;2023-11-21T06:31:49;9.05;99.99
78490;DHT22;67776;52.012;4.736;2023-11-21T06:34:14;9.07;99.99
78490;DHT22;67776;52.012;4.736;2023-11-21T06:36:39;9.12;99.99
78490;DHT22;67776;52.012;4.736;2023-11-21T06:39:05;9.16;99.99
78490;DHT22;67776;52.012;4.736;2023-11-21T06:41:34;9.11;99.99
78490;DHT22;67776;52.012;4.736;2023-11-21T06:43:59;9.08;99.99
78490;DHT22;67776;52.012;4.736;2023-11-21T06:46:25;9.01;99.99
78490;DHT22;67776;52.012;4.736;2023-11-21T06:48:50;8.94;99.99
78490;DHT22;67776;52.012;4.736;2023-11-21T06:51:16;8.89;99.99
78490;DHT22;67776;52.012;4.736;2023-11-21T06:53:41;8.88;99.99
78490;DHT22;67776;52.012;4.736;2023-11-21T06:56:17;8.88;99.99
78490;DHT22;67776;52.012;4.736;2023-11-21T06:58:44;8.88;99.99
78490;DHT22;67776;52.012;4.736;2023-11-21T07:01:11;8.88;99.99
78490;DHT22;67776;52.012;4.736;2023-11-21T07:03:36;8.91;99.99
78490;DHT22;67776;52.012;4.736;2023-11-21T07:06:02;8.89;99.99
78490;DHT22;67776;52.012;4.736;2023-11-21T07:08:28;8.95;99.99
78490;DHT22;67776;52.012;4.736;2023-11-21T07:10:53;9.01;99.99
78490;DHT22;67776;52.012;4.736;2023-11-21T07:13:18;9.08;99.99
78490;DHT22;67776;52.012;4.736;2023-11-21T07:15:44;9.07;99.99
78490;DHT22;67776;52.012;4.736;2023-11-21T07:18:09;9.16;99.99
78490;DHT22;67776;52.012;4.736;2023-11-21T07:20:34;9.18;99.99
78490;DHT22;67776;52.012;4.736;2023-11-21T07:23:00;9.25;99.99
78490;DHT22;67776;52.012;4.736;2023-11-21T07:25:26;9.30;99.99
78490;DHT22;67776;52.012;4.736;2023-11-21T07:27:51;9.32;99.99
78490;DHT22;67776;52.012;4.736;2023-11-21T07:30:18;9.43;99.99
78490;DHT22;67776;52.012;4.736;2023-11-21T07:32:43;9.42;99.99
78490;DHT22;67776;52.012;4.736;2023-11-21T07:35:10;9.38;99.99
78490;DHT22;67776;52.012;4.736;2023-11-21T07:37:35;9.40;99.99
78490;DHT22;67776;52.012;4.736;2023-11-21T07:40:00;9.50;99.99
78490;DHT22;67776;52.012;4.736;2023-11-21T07:42:26;9.51;99.99
78490;DHT22;67776;52.012;4.736;2023-11-21T07:44:52;9.50;99.99
78490;DHT22;67776;52.012;4.736;2023-11-21T07:47:17;9.51;99.99
78490;DHT22;67776;52.012;4.736;2023-11-21T07:49:42;9.49;99.99
78490;DHT22;67776;52.012;4.736;2023-11-21T07:52:09;9.53;99.99
78490;DHT22;67776;52.012;4.736;2023-11-21T07:54:35;9.50;99.99
78490;DHT22;67776;52.012;4.736;2023-11-21T07:57:01;9.61;99.99
78490;DHT22;67776;52.012;4.736;2023-11-21T07:59:26;9.57;99.99
78490;DHT22;67776;52.012;4.736;2023-11-21T08:01:51;9.56;99.99
78490;DHT22;67776;52.012;4.736;2023-11-21T08:04:17;9.61;99.99
78490;DHT22;67776;52.012;4.736;2023-11-21T08:06:42;9.59;99.99
78490;DHT22;67776;52.012;4.736;2023-11-21T08:09:07;9.59;99.99
78490;DHT22;67776;52.012;4.736;2023-11-21T08:11:33;9.63;99.99
78490;DHT22;67776;52.012;4.736;2023-11-21T08:13:59;9.67;99.99
78490;DHT22;67776;52.012;4.736;2023-11-21T08:16:25;9.69;99.99
78490;DHT22;67776;52.012;4.736;2023-11-21T08:18:50;9.69;99.99
78490;DHT22;67776;52.012;4.736;2023-11-21T08:21:16;9.73;99.99
78490;DHT22;67776;52.012;4.736;2023-11-21T08:23:41;9.74;99.99
78490;DHT22;67776;52.012;4.736;2023-11-21T08:26:07;9.81;99.99
78490;DHT22;67776;52.012;4.736;2023-11-21T08:28:34;9.84;99.99
78490;DHT22;67776;52.012;4.736;2023-11-21T08:31:00;9.90;99.99
78490;DHT22;67776;52.012;4.736;2023-11-21T08:33:26;9.93;99.99
78490;DHT22;67776;52.012;4.736;2023-11-21T08:35:51;9.95;99.99
78490;DHT22;67776;52.012;4.736;2023-11-21T08:38:17;10.05;99.99
78490;DHT22;67776;52.012;4.736;2023-11-21T08:40:43;10.12;99.99
78490;DHT22;67776;52.012;4.736;2023-11-21T08:43:08;10.05;99.99
78490;DHT22;67776;52.012;4.736;2023-11-21T08:45:34;10.12;99.99
78490;DHT22;67776;52.012;4.736;2023-11-21T08:48:02;10.13;99.99
78490;DHT22;67776;52.012;4.736;2023-11-21T08:50:28;10.18;99.99
78490;DHT22;67776;52.012;4.736;2023-11-21T08:52:54;10.11;99.99
78490;DHT22;67776;52.012;4.736;2023-11-21T08:55:19;10.12;99.99
78490;DHT22;67776;52.012;4.736;2023-11-21T08:57:45;10.15;99.99
78490;DHT22;67776;52.012;4.736;2023-11-21T09:00:12;10.23;99.99
78490;DHT22;67776;52.012;4.736;2023-11-21T09:02:40;10.19;99.99
78490;DHT22;67776;52.012;4.736;2023-11-21T09:05:10;10.23;99.99
78490;DHT22;67776;52.012;4.736;2023-11-21T09:07:36;10.21;99.99
78490;DHT22;67776;52.012;4.736;2023-11-21T09:10:03;10.29;99.99
78490;DHT22;67776;52.012;4.736;2023-11-21T09:12:28;10.40;99.99
78490;DHT22;67776;52.012;4.736;2023-11-21T09:14:54;10.46;99.93
78490;DHT22;67776;52.012;4.736;2023-11-21T09:17:19;10.48;99.81
78490;DHT22;67776;52.012;4.736;2023-11-21T09:19:44;10.45;99.80
78490;DHT22;67776;52.012;4.736;2023-11-21T09:22:12;10.39;99.57
78490;DHT22;67776;52.012;4.736;2023-11-21T09:24:37;10.36;99.73
78490;DHT22;67776;52.012;4.736;2023-11-21T09:27:03;10.40;99.74
78490;DHT22;67776;52.012;4.736;2023-11-21T09:29:30;10.43;99.74
78490;DHT22;67776;52.012;4.736;2023-11-21T09:31:57;10.38;99.41
78490;DHT22;67776;52.012;4.736;2023-11-21T09:34:24;10.42;99.45
78490;DHT22;67776;52.012;4.736;2023-11-21T09:36:51;10.33;99.52
78490;DHT22;67776;52.012;4.736;2023-11-21T09:39:16;10.32;99.47
78490;DHT22;67776;52.012;4.736;2023-11-21T09:41:46;10.31;99.25
78490;DHT22;67776;52.012;4.736;2023-11-21T09:44:18;10.38;99.20
78490;DHT22;67776;52.012;4.736;2023-11-21T09:46:44;10.38;98.73
78490;DHT22;67776;52.012;4.736;2023-11-21T09:49:13;10.32;98.86
78490;DHT22;67776;52.012;4.736;2023-11-21T09:51:42;10.36;98.90
78490;DHT22;67776;52.012;4.736;2023-11-21T09:54:10;10.39;98.97
78490;DHT22;67776;52.012;4.736;2023-11-21T09:56:36;10.38;99.02
78490;DHT22;67776;52.012;4.736;2023-11-21T09:59:02;10.43;98.94
78490;DHT22;67776;52.012;4.736;2023-11-21T10:01:32;10.33;98.83
78490;DHT22;67776;52.012;4.736;2023-11-21T10:03:57;10.33;98.88
78490;DHT22;67776;52.012;4.736;2023-11-21T10:06:25;10.32;98.72
78490;DHT22;67776;52.012;4.736;2023-11-21T10:08:53;10.40;98.65
78490;DHT22;67776;52.012;4.736;2023-11-21T10:11:19;10.38;98.35
78490;DHT22;67776;52.012;4.736;2023-11-21T10:13:46;10.38;97.94
78490;DHT22;67776;52.012;4.736;2023-11-21T10:16:14;10.25;98.40
78490;DHT22;67776;52.012;4.736;2023-11-21T10:18:41;10.26;98.30
78490;DHT22;67776;52.012;4.736;2023-11-21T10:21:07;10.21;98.41
78490;DHT22;67776;52.012;4.736;2023-11-21T10:23:34;10.21;98.69
78490;DHT22;67776;52.012;4.736;2023-11-21T10:25:59;10.18;98.83
78490;DHT22;67776;52.012;4.736;2023-11-21T10:28:25;10.18;98.55
78490;DHT22;67776;52.012;4.736;2023-11-21T10:30:51;10.12;98.37
78490;DHT22;67776;52.012;4.736;2023-11-21T10:33:21;10.09;98.74
78490;DHT22;67776;52.012;4.736;2023-11-21T10:35:51;10.09;98.62
78490;DHT22;67776;52.012;4.736;2023-11-21T10:38:20;10.09;98.43
78490;DHT22;67776;52.012;4.736;2023-11-21T10:40:49;10.09;98.44
78490;DHT22;67776;52.012;4.736;2023-11-21T10:43:15;10.09;98.19
78490;DHT22;67776;52.012;4.736;2023-11-21T10:45:42;10.15;98.15
78490;DHT22;67776;52.012;4.736;2023-11-21T10:48:12;10.18;98.17
78490;DHT22;67776;52.012;4.736;2023-11-21T10:50:41;10.13;98.33
78490;DHT22;67776;52.012;4.736;2023-11-21T10:53:07;10.13;98.43
78490;DHT22;67776;52.012;4.736;2023-11-21T10:55:34;10.18;98.39
78490;DHT22;67776;52.012;4.736;2023-11-21T10:58:01;10.18;98.63
78490;DHT22;67776;52.012;4.736;2023-11-21T11:00:28;10.19;98.76
78490;DHT22;67776;52.012;4.736;2023-11-21T11:02:54;10.28;98.61
78490;DHT22;67776;52.012;4.736;2023-11-21T11:05:22;10.35;98.55
78490;DHT22;67776;52.012;4.736;2023-11-21T11:07:51;10.35;98.61
78490;DHT22;67776;52.012;4.736;2023-11-21T11:10:21;10.26;98.68
78490;DHT22;67776;52.012;4.736;2023-11-21T11:12:48;10.29;98.58
78490;DHT22;67776;52.012;4.736;2023-11-21T11:15:16;10.23;98.66
78490;DHT22;67776;52.012;4.736;2023-11-21T11:17:41;10.28;98.65
78490;DHT22;67776;52.012;4.736;2023-11-21T11:20:11;10.32;98.43
78490;DHT22;67776;52.012;4.736;2023-11-21T11:25:38;10.33;98.38
78490;DHT22;67776;52.012;4.736;2023-11-21T11:28:11;10.39;98.34
78490;DHT22;67776;52.012;4.736;2023-11-21T11:31:04;10.43;98.37
78490;DHT22;67776;52.012;4.736;2023-11-21T11:33:53;10.32;98.39
78490;DHT22;67776;52.012;4.736;2023-11-21T11:36:37;10.39;98.29
78490;DHT22;67776;52.012;4.736;2023-11-21T11:39:38;10.45;98.36
78490;DHT22;67776;52.012;4.736;2023-11-21T11:42:07;10.49;98.32
78490;DHT22;67776;52.012;4.736;2023-11-21T11:44:53;10.36;98.46
78490;DHT22;67776;52.012;4.736;2023-11-21T11:47:28;10.43;98.27
78490;DHT22;67776;52.012;4.736;2023-11-21T11:52:41;10.40;98.59
78490;DHT22;67776;52.012;4.736;2023-11-21T11:55:08;10.48;98.45
78490;DHT22;67776;52.012;4.736;2023-11-21T11:57:35;10.56;98.27
78490;DHT22;67776;52.012;4.736;2023-11-21T12:00:16;10.48;98.43
78490;DHT22;67776;52.012;4.736;2023-11-21T12:02:48;10.48;98.19
78490;DHT22;67776;52.012;4.736;2023-11-21T12:05:21;10.64;98.12
78490;DHT22;67776;52.012;4.736;2023-11-21T12:10:17;10.90;96.99
78490;DHT22;67776;52.012;4.736;2023-11-21T12:12:49;10.90;97.06
78490;DHT22;67776;52.012;4.736;2023-11-21T12:15:16;10.74;97.56
78490;DHT22;67776;52.012;4.736;2023-11-21T12:17:42;10.70;97.49
78490;DHT22;67776;52.012;4.736;2023-11-21T12:20:09;10.66;97.65
78490;DHT22;67776;52.012;4.736;2023-11-21T12:22:41;10.48;98.08
78490;DHT22;67776;52.012;4.736;2023-11-21T12:25:08;10.56;97.99
78490;DHT22;67776;52.012;4.736;2023-11-21T12:27:33;10.46;98.23
78490;DHT22;67776;52.012;4.736;2023-11-21T12:29:58;10.43;98.25
78490;DHT22;67776;52.012;4.736;2023-11-21T12:32:24;10.43;98.07
78490;DHT22;67776;52.012;4.736;2023-11-21T12:34:50;10.33;98.14
78490;DHT22;67776;52.012;4.736;2023-11-21T12:37:16;10.35;98.09
78490;DHT22;67776;52.012;4.736;2023-11-21T12:39:42;10.33;98.17
78490;DHT22;67776;52.012;4.736;2023-11-21T12:42:07;10.35;97.88
78490;DHT22;67776;52.012;4.736;2023-11-21T12:44:33;10.38;98.14
78490;DHT22;67776;52.012;4.736;2023-11-21T12:46:59;10.32;98.30
78490;DHT22;67776;52.012;4.736;2023-11-21T12:49:24;10.25;97.95
78490;DHT22;67776;52.012;4.736;2023-11-21T12:51:50;10.31;98.07
78490;DHT22;67776;52.012;4.736;2023-11-21T12:54:16;10.31;97.76
78490;DHT22;67776;52.012;4.736;2023-11-21T12:56:45;10.39;97.76
78490;DHT22;67776;52.012;4.736;2023-11-21T12:59:12;10.52;97.58
78490;DHT22;67776;52.012;4.736;2023-11-21T13:01:42;10.57;96.96
78490;DHT22;67776;52.012;4.736;2023-11-21T13:04:07;10.55;97.51
78490;DHT22;67776;52.012;4.736;2023-11-21T13:06:33;10.68;96.82
78490;DHT22;67776;52.012;4.736;2023-11-21T13:09:03;10.67;96.72
78490;DHT22;67776;52.012;4.736;2023-11-21T13:11:34;10.48;97.44
78490;DHT22;67776;52.012;4.736;2023-11-21T13:13:59;10.36;97.33
78490;DHT22;67776;52.012;4.736;2023-11-21T13:16:25;10.36;97.90
78490;DHT22;67776;52.012;4.736;2023-11-21T13:18:51;10.31;97.71
78490;DHT22;67776;52.012;4.736;2023-11-21T13:21:17;10.22;97.88
78490;DHT22;67776;52.012;4.736;2023-11-21T13:23:43;10.08;98.10
78490;DHT22;67776;52.012;4.736;2023-11-21T13:26:11;10.18;98.06
78490;DHT22;67776;52.012;4.736;2023-11-21T13:28:37;10.15;98.21
78490;DHT22;67776;52.012;4.736;2023-11-21T13:31:04;10.21;98.05
78490;DHT22;67776;52.012;4.736;2023-11-21T13:33:46;10.25;98.02
78490;DHT22;67776;52.012;4.736;2023-11-21T13:36:16;10.21;98.03
78490;DHT22;67776;52.012;4.736;2023-11-21T13:38:48;10.22;97.70
78490;DHT22;67776;52.012;4.736;2023-11-21T13:41:14;10.19;97.85
78490;DHT22;67776;52.012;4.736;2023-11-21T13:43:39;10.25;97.81
78490;DHT22;67776;52.012;4.736;2023-11-21T13:46:05;10.19;97.81
78490;DHT22;67776;52.012;4.736;2023-11-21T13:48:38;10.18;97.86
78490;DHT22;67776;52.012;4.736;2023-11-21T13:51:08;10.04;98.16
78490;DHT22;67776;52.012;4.736;2023-11-21T13:53:43;10.01;98.17
78490;DHT22;67776;52.012;4.736;2023-11-21T13:56:10;9.91;98.25
78490;DHT22;67776;52.012;4.736;2023-11-21T13:58:36;9.98;97.93
78490;DHT22;67776;52.012;4.736;2023-11-21T14:01:21;9.98;98.08
78490;DHT22;67776;52.012;4.736;2023-11-21T14:03:56;9.99;97.98
78490;DHT22;67776;52.012;4.736;2023-11-21T14:06:27;10.08;97.62
78490;DHT22;67776;52.012;4.736;2023-11-21T14:09:02;10.04;97.67
78490;DHT22;67776;52.012;4.736;2023-11-21T14:11:30;9.94;97.48
78490;DHT22;67776;52.012;4.736;2023-11-21T14:13:56;9.91;97.58
78490;DHT22;67776;52.012;4.736;2023-11-21T14:16:21;9.97;97.69
78490;DHT22;67776;52.012;4.736;2023-11-21T14:18:47;9.83;97.66
78490;DHT22;67776;52.012;4.736;2023-11-21T14:21:18;9.84;97.50
78490;DHT22;67776;52.012;4.736;2023-11-21T14:23:44;9.84;97.81
78490;DHT22;67776;52.012;4.736;2023-11-21T14:26:11;9.78;97.58
78490;DHT22;67776;52.012;4.736;2023-11-21T14:28:39;9.80;97.72
78490;DHT22;67776;52.012;4.736;2023-11-21T14:31:04;9.77;97.63
78490;DHT22;67776;52.012;4.736;2023-11-21T14:33:29;9.81;97.82
78490;DHT22;67776;52.012;4.736;2023-11-21T14:35:55;9.78;97.52
78490;DHT22;67776;52.012;4.736;2023-11-21T14:38:22;9.81;97.53
78490;DHT22;67776;52.012;4.736;2023-11-21T14:40:48;9.77;97.49
78490;DHT22;67776;52.012;4.736;2023-11-21T14:43:14;9.84;97.36
78490;DHT22;67776;52.012;4.736;2023-11-21T14:45:39;9.74;97.60
78490;DHT22;67776;52.012;4.736;2023-11-21T14:48:05;9.76;97.50
78490;DHT22;67776;52.012;4.736;2023-11-21T14:50:35;9.70;97.48
78490;DHT22;67776;52.012;4.736;2023-11-21T14:53:06;9.63;97.11
78490;DHT22;67776;52.012;4.736;2023-11-21T14:55:33;9.64;97.13
78490;DHT22;67776;52.012;4.736;2023-11-21T14:58:08;9.54;97.24
78490;DHT22;67776;52.012;4.736;2023-11-21T15:00:37;9.53;97.26
78490;DHT22;67776;52.012;4.736;2023-11-21T15:03:08;9.54;97.19
78490;DHT22;67776;52.012;4.736;2023-11-21T15:05:35;9.56;97.12
78490;DHT22;67776;52.012;4.736;2023-11-21T15:08:01;9.61;97.24
78490;DHT22;67776;52.012;4.736;2023-11-21T15:10:42;9.56;97.39
78490;DHT22;67776;52.012;4.736;2023-11-21T15:13:13;9.53;97.63
78490;DHT22;67776;52.012;4.736;2023-11-21T15:15:40;9.53;97.21
78490;DHT22;67776;52.012;4.736;2023-11-21T15:18:05;9.49;97.66
78490;DHT22;67776;52.012;4.736;2023-11-21T15:20:31;9.44;97.21
78490;DHT22;67776;52.012;4.736;2023-11-21T15:22:57;9.38;97.20
78490;DHT22;67776;52.012;4.736;2023-11-21T15:25:22;9.33;97.13
78490;DHT22;67776;52.012;4.736;2023-11-21T15:27:48;9.36;97.37
78490;DHT22;67776;52.012;4.736;2023-11-21T15:30:17;9.33;97.33
78490;DHT22;67776;52.012;4.736;2023-11-21T15:32:50;9.38;96.92
78490;DHT22;67776;52.012;4.736;2023-11-21T15:35:16;9.46;96.44
78490;DHT22;67776;52.012;4.736;2023-11-21T15:37:41;9.39;96.39
78490;DHT22;67776;52.012;4.736;2023-11-21T15:40:08;9.38;96.44
78490;DHT22;67776;52.012;4.736;2023-11-21T15:42:34;9.36;96.26
78490;DHT22;67776;52.012;4.736;2023-11-21T15:45:04;9.38;95.90
78490;DHT22;67776;52.012;4.736;2023-11-21T15:47:33;9.32;96.42